sensor_id;sensor_type;location;lat;lon;timestamp;pressure;altitude;pressure_sealevel;temperature;humidity
5651;BME280;40241;52.684;9.758;2022-10-04T00:03:25;102106.06;;;13.87;63.20
5651;BME280;40241;52.684;9.758;2022-10-04T00:05:54;102100.72;;;13.84;63.10
5651;BME280;40241;52.684;9.758;2022-10-04T00:08:40;102099.47;;;13.85;63.12
5651;BME280;40241;52.684;9.758;2022-10-04T00:11:14;102101.69;;;13.81;63.10
5651;BME280;40241;52.684;9.758;2022-10-04T00:13:48;102104.16;;;13.79;63.08
5651;BME280;40241;52.684;9.758;2022-10-04T00:16:28;102098.63;;;13.79;63.16
5651;BME280;40241;52.684;9.758;2022-10-04T00:24:34;102093.31;;;13.75;63.12
5651;BME280;40241;52.684;9.758;2022-10-04T00:27:22;102098.06;;;13.75;63.23
5651;BME280;40241;52.684;9.758;2022-10-04T00:30:12;102093.50;;;13.72;63.07
5651;BME280;40241;52.684;9.758;2022-10-04T00:38:24;102089.69;;;13.69;63.70
5651;BME280;40241;52.684;9.758;2022-10-04T00:41:02;102096.25;;;13.72;63.25
5651;BME280;40241;52.684;9.758;2022-10-04T00:43:46;102101.31;;;13.73;63.54
5651;BME280;40241;52.684;9.758;2022-10-04T00:46:18;102099.34;;;13.74;63.33
5651;BME280;40241;52.684;9.758;2022-10-04T00:48:51;102089.78;;;13.75;63.27
5651;BME280;40241;52.684;9.758;2022-10-04T00:51:45;102074.91;;;13.72;63.45
5651;BME280;40241;52.684;9.758;2022-10-04T00:56:45;102067.75;;;13.66;63.30
5651;BME280;40241;52.684;9.758;2022-10-04T00:59:40;102057.66;;;13.63;63.61
5651;BME280;40241;52.684;9.758;2022-10-04T01:02:23;102049.38;;;13.63;63.64
5651;BME280;40241;52.684;9.758;2022-10-04T01:04:57;102058.13;;;13.61;63.48
5651;BME280;40241;52.684;9.758;2022-10-04T01:07:34;102057.66;;;13.63;63.43
5651;BME280;40241;52.684;9.758;2022-10-04T01:10:07;102056.41;;;13.64;63.44
5651;BME280;40241;52.684;9.758;2022-10-04T01:12:50;102051.66;;;13.64;63.76
5651;BME280;40241;52.684;9.758;2022-10-04T01:21:19;102057.38;;;13.61;63.64
5651;BME280;40241;52.684;9.758;2022-10-04T01:23:49;102052.81;;;13.58;63.28
5651;BME280;40241;52.684;9.758;2022-10-04T01:31:32;102052.63;;;13.46;63.33
5651;BME280;40241;52.684;9.758;2022-10-04T01:33:59;102049.84;;;13.46;63.42
5651;BME280;40241;52.684;9.758;2022-10-04T01:36:26;102056.91;;;13.47;63.54
5651;BME280;40241;52.684;9.758;2022-10-04T01:38:52;102054.44;;;13.49;63.61
5651;BME280;40241;52.684;9.758;2022-10-04T01:41:21;102063.00;;;13.51;63.59
5651;BME280;40241;52.684;9.758;2022-10-04T01:43:52;102050.41;;;13.50;63.33
5651;BME280;40241;52.684;9.758;2022-10-04T01:46:24;102045.38;;;13.49;63.44
5651;BME280;40241;52.684;9.758;2022-10-04T01:48:54;102035.25;;;13.46;63.47
5651;BME280;40241;52.684;9.758;2022-10-04T01:51:23;102040.03;;;13.45;63.63
5651;BME280;40241;52.684;9.758;2022-10-04T01:53:57;102041.06;;;13.48;63.52
5651;BME280;40241;52.684;9.758;2022-10-04T01:56:26;102034.03;;;13.47;63.64
5651;BME280;40241;52.684;9.758;2022-10-04T01:58:59;102030.28;;;13.50;63.68
5651;BME280;40241;52.684;9.758;2022-10-04T02:04:17;102024.47;;;13.48;64.10
5651;BME280;40241;52.684;9.758;2022-10-04T02:06:44;102023.75;;;13.47;63.66
5651;BME280;40241;52.684;9.758;2022-10-04T02:09:18;102030.28;;;13.50;63.78
5651;BME280;40241;52.684;9.758;2022-10-04T02:11:47;102022.78;;;13.50;63.65
5651;BME280;40241;52.684;9.758;2022-10-04T02:14:21;102025.03;;;13.52;64.03
5651;BME280;40241;52.684;9.758;2022-10-04T02:16:50;102018.78;;;13.51;63.86
5651;BME280;40241;52.684;9.758;2022-10-04T02:19:22;102017.25;;;13.50;63.66
5651;BME280;40241;52.684;9.758;2022-10-04T02:21:50;102015.72;;;13.49;63.66
5651;BME280;40241;52.684;9.758;2022-10-04T02:24:16;101998.88;;;13.47;63.71
5651;BME280;40241;52.684;9.758;2022-10-04T02:26:48;102007.16;;;13.47;63.83
5651;BME280;40241;52.684;9.758;2022-10-04T02:29:13;101997.13;;;13.50;63.99
5651;BME280;40241;52.684;9.758;2022-10-04T02:31:39;102002.19;;;13.51;63.78
5651;BME280;40241;52.684;9.758;2022-10-04T02:34:23;101990.34;;;13.51;64.12
5651;BME280;40241;52.684;9.758;2022-10-04T02:36:48;101992.63;;;13.52;64.06
5651;BME280;40241;52.684;9.758;2022-10-04T02:39:31;101990.16;;;13.54;64.46
5651;BME280;40241;52.684;9.758;2022-10-04T02:42:20;101982.63;;;13.55;64.34
5651;BME280;40241;52.684;9.758;2022-10-04T02:44:57;101982.91;;;13.57;64.00
5651;BME280;40241;52.684;9.758;2022-10-04T02:47:27;101975.09;;;13.56;63.95
5651;BME280;40241;52.684;9.758;2022-10-04T02:49:59;101999.97;;;13.56;64.01
5651;BME280;40241;52.684;9.758;2022-10-04T02:52:41;101974.81;;;13.53;64.15
5651;BME280;40241;52.684;9.758;2022-10-04T02:55:26;101978.53;;;13.50;64.07
5651;BME280;40241;52.684;9.758;2022-10-04T02:57:56;101976.25;;;13.49;64.01
5651;BME280;40241;52.684;9.758;2022-10-04T03:00:24;101971.78;;;13.51;63.95
5651;BME280;40241;52.684;9.758;2022-10-04T03:05:40;101976.31;;;13.54;63.99
5651;BME280;40241;52.684;9.758;2022-10-04T03:08:06;101969.56;;;13.56;64.15
5651;BME280;40241;52.684;9.758;2022-10-04T03:10:31;101970.34;;;13.56;63.98
5651;BME280;40241;52.684;9.758;2022-10-04T03:12:57;101966.31;;;13.57;64.23
5651;BME280;40241;52.684;9.758;2022-10-04T03:15:23;101958.50;;;13.56;64.01
5651;BME280;40241;52.684;9.758;2022-10-04T03:17:49;101971.84;;;13.57;64.21
5651;BME280;40241;52.684;9.758;2022-10-04T03:20:15;101982.41;;;13.59;64.21
5651;BME280;40241;52.684;9.758;2022-10-04T03:23:03;101958.50;;;13.56;64.36
5651;BME280;40241;52.684;9.758;2022-10-04T03:25:37;101964.03;;;13.56;64.13
5651;BME280;40241;52.684;9.758;2022-10-04T03:28:05;101957.53;;;13.59;64.33
5651;BME280;40241;52.684;9.758;2022-10-04T03:30:33;101959.81;;;13.60;64.27
5651;BME280;40241;52.684;9.758;2022-10-04T03:32:58;101956.28;;;13.60;64.20
5651;BME280;40241;52.684;9.758;2022-10-04T03:35:32;101960.28;;;13.59;64.43
5651;BME280;40241;52.684;9.758;2022-10-04T03:37:58;101962.50;;;13.54;64.10
5651;BME280;40241;52.684;9.758;2022-10-04T03:40:29;101958.50;;;13.56;64.18
5651;BME280;40241;52.684;9.758;2022-10-04T03:42:57;101956.97;;;13.54;64.23
5651;BME280;40241;52.684;9.758;2022-10-04T03:45:24;101961.00;;;13.53;64.24
5651;BME280;40241;52.684;9.758;2022-10-04T03:47:52;101969.75;;;13.52;64.25
5651;BME280;40241;52.684;9.758;2022-10-04T03:50:27;101953.94;;;13.52;64.23
5651;BME280;40241;52.684;9.758;2022-10-04T03:52:56;101956.69;;;13.52;64.25
5651;BME280;40241;52.684;9.758;2022-10-04T03:55:38;101959.44;;;13.52;64.58
5651;BME280;40241;52.684;9.758;2022-10-04T03:58:09;101956.91;;;13.49;64.35
5651;BME280;40241;52.684;9.758;2022-10-04T04:00:40;101949.56;;;13.46;64.23
5651;BME280;40241;52.684;9.758;2022-10-04T04:03:14;101957.38;;;13.47;64.40
5651;BME280;40241;52.684;9.758;2022-10-04T04:06:01;101948.03;;;13.45;64.48
5651;BME280;40241;52.684;9.758;2022-10-04T04:08:36;101950.03;;;13.44;64.55
5651;BME280;40241;52.684;9.758;2022-10-04T04:11:05;101946.50;;;13.44;64.36
5651;BME280;40241;52.684;9.758;2022-10-04T04:13:45;101957.84;;;13.46;64.50
5651;BME280;40241;52.684;9.758;2022-10-04T04:16:13;101957.09;;;13.45;64.42
5651;BME280;40241;52.684;9.758;2022-10-04T04:18:40;101953.09;;;13.46;64.46
5651;BME280;40241;52.684;9.758;2022-10-04T04:21:08;101956.13;;;13.48;64.46
5651;BME280;40241;52.684;9.758;2022-10-04T04:23:37;101956.41;;;13.50;64.41
5651;BME280;40241;52.684;9.758;2022-10-04T04:28:43;101962.72;;;13.51;64.58
5651;BME280;40241;52.684;9.758;2022-10-04T04:34:04;101957.94;;;13.51;64.42
5651;BME280;40241;52.684;9.758;2022-10-04T04:36:38;101954.69;;;13.53;64.57
5651;BME280;40241;52.684;9.758;2022-10-04T04:39:22;101958.41;;;13.50;64.71
5651;BME280;40241;52.684;9.758;2022-10-04T04:44:36;101947.28;;;13.44;64.20
5651;BME280;40241;52.684;9.758;2022-10-04T04:47:05;101952.03;;;13.44;64.55
5651;BME280;40241;52.684;9.758;2022-10-04T04:49:36;101948.78;;;13.45;64.63
5651;BME280;40241;52.684;9.758;2022-10-04T04:52:04;101959.09;;;13.45;64.54
5651;BME280;40241;52.684;9.758;2022-10-04T04:54:31;101952.81;;;13.44;64.57
5651;BME280;40241;52.684;9.758;2022-10-04T04:56:56;101954.81;;;13.44;64.55
5651;BME280;40241;52.684;9.758;2022-10-04T04:59:24;101955.09;;;13.46;64.71
5651;BME280;40241;52.684;9.758;2022-10-04T05:01:51;101950.31;;;13.46;64.65
5651;BME280;40241;52.684;9.758;2022-10-04T05:04:22;101951.56;;;13.45;64.57
5651;BME280;40241;52.684;9.758;2022-10-04T05:07:04;101946.78;;;13.46;64.67
5651;BME280;40241;52.684;9.758;2022-10-04T05:09:35;101945.56;;;13.47;64.64
5651;BME280;40241;52.684;9.758;2022-10-04T05:12:13;101950.59;;;13.48;64.70
5651;BME280;40241;52.684;9.758;2022-10-04T05:14:46;101947.84;;;13.48;64.53
5651;BME280;40241;52.684;9.758;2022-10-04T05:17:29;101946.31;;;13.47;64.93
5651;BME280;40241;52.684;9.758;2022-10-04T05:19:59;101938.50;;;13.46;64.61
5651;BME280;40241;52.684;9.758;2022-10-04T05:22:27;101937.72;;;13.45;64.76
5651;BME280;40241;52.684;9.758;2022-10-04T05:24:58;101935.72;;;13.46;64.58
5651;BME280;40241;52.684;9.758;2022-10-04T05:27:35;101940.78;;;13.47;64.93
5651;BME280;40241;52.684;9.758;2022-10-04T05:33:04;101935.56;;;13.49;64.78
5651;BME280;40241;52.684;9.758;2022-10-04T05:35:41;101939.81;;;13.50;64.91
5651;BME280;40241;52.684;9.758;2022-10-04T05:43:31;101949.16;;;13.53;64.85
5651;BME280;40241;52.684;9.758;2022-10-04T05:46:16;101945.16;;;13.54;64.97
5651;BME280;40241;52.684;9.758;2022-10-04T05:48:44;101952.19;;;13.55;64.62
5651;BME280;40241;52.684;9.758;2022-10-04T05:51:22;101949.72;;;13.57;65.01
5651;BME280;40241;52.684;9.758;2022-10-04T05:53:48;101951.25;;;13.58;64.78
5651;BME280;40241;52.684;9.758;2022-10-04T06:10:16;101949.59;;;13.66;64.97
5651;BME280;40241;52.684;9.758;2022-10-04T06:15:50;101946.63;;;13.70;65.17
5651;BME280;40241;52.684;9.758;2022-10-04T06:21:30;101951.69;;;13.71;65.04
5651;BME280;40241;52.684;9.758;2022-10-04T06:24:13;101959.78;;;13.75;65.14
5651;BME280;40241;52.684;9.758;2022-10-04T06:29:51;101957.28;;;13.77;64.77
5651;BME280;40241;52.684;9.758;2022-10-04T06:46:42;101955.16;;;13.86;64.98
5651;BME280;40241;52.684;9.758;2022-10-04T06:49:30;101955.72;;;13.90;65.16
5651;BME280;40241;52.684;9.758;2022-10-04T06:55:35;101958.81;;;13.98;65.30
5651;BME280;40241;52.684;9.758;2022-10-04T07:00:49;101961.44;;;14.07;64.96
5651;BME280;40241;52.684;9.758;2022-10-04T07:03:23;101968.56;;;14.13;65.00
5651;BME280;40241;52.684;9.758;2022-10-04T07:05:57;101957.31;;;14.17;65.06
5651;BME280;40241;52.684;9.758;2022-10-04T07:08:47;101961.38;;;14.21;64.95
5651;BME280;40241;52.684;9.758;2022-10-04T07:11:27;101962.44;;;14.24;65.07
5651;BME280;40241;52.684;9.758;2022-10-04T07:14:11;101956.66;;;14.27;65.12
5651;BME280;40241;52.684;9.758;2022-10-04T07:22:07;101965.91;;;14.39;65.22
5651;BME280;40241;52.684;9.758;2022-10-04T07:27:33;101963.53;;;14.52;65.01
5651;BME280;40241;52.684;9.758;2022-10-04T07:30:12;101966.59;;;14.60;65.03
5651;BME280;40241;52.684;9.758;2022-10-04T07:32:46;101968.44;;;14.68;65.02
5651;BME280;40241;52.684;9.758;2022-10-04T07:35:31;101961.25;;;14.76;65.05
5651;BME280;40241;52.684;9.758;2022-10-04T07:40:40;101974.75;;;14.94;64.89
5651;BME280;40241;52.684;9.758;2022-10-04T07:43:12;101971.81;;;15.03;64.64
5651;BME280;40241;52.684;9.758;2022-10-04T07:45:44;101970.34;;;15.08;64.71
5651;BME280;40241;52.684;9.758;2022-10-04T07:48:15;101969.91;;;15.15;64.74
5651;BME280;40241;52.684;9.758;2022-10-04T07:56:25;101975.28;;;15.30;64.48
5651;BME280;40241;52.684;9.758;2022-10-04T08:02:17;101969.56;;;15.39;64.55
5651;BME280;40241;52.684;9.758;2022-10-04T08:07:25;101979.50;;;15.51;64.17
5651;BME280;40241;52.684;9.758;2022-10-04T08:09:59;101970.72;;;15.58;64.39
5651;BME280;40241;52.684;9.758;2022-10-04T08:20:32;101963.88;;;15.96;63.92
5651;BME280;40241;52.684;9.758;2022-10-04T08:37:34;101966.28;;;16.36;63.04
5651;BME280;40241;52.684;9.758;2022-10-04T08:49:26;101954.53;;;16.74;62.68
5651;BME280;40241;52.684;9.758;2022-10-04T08:58:14;101963.66;;;16.97;61.70
5651;BME280;40241;52.684;9.758;2022-10-04T09:14:20;101951.22;;;17.42;61.77
5651;BME280;40241;52.684;9.758;2022-10-04T09:25:17;101942.31;;;17.71;60.86
5651;BME280;40241;52.684;9.758;2022-10-04T09:49:37;101939.06;;;18.30;60.13
5651;BME280;40241;52.684;9.758;2022-10-04T09:55:08;101934.69;;;18.40;60.29
5651;BME280;40241;52.684;9.758;2022-10-04T10:00:50;101934.13;;;18.53;59.32
5651;BME280;40241;52.684;9.758;2022-10-04T10:09:09;101924.41;;;18.65;59.19
5651;BME280;40241;52.684;9.758;2022-10-04T10:12:15;101924.38;;;18.70;59.17
5651;BME280;40241;52.684;9.758;2022-10-04T10:31:09;101915.97;;;19.06;57.45
5651;BME280;40241;52.684;9.758;2022-10-04T10:36:44;101909.47;;;19.22;58.23
5651;BME280;40241;52.684;9.758;2022-10-04T11:04:05;101897.91;;;19.61;55.92
5651;BME280;40241;52.684;9.758;2022-10-04T11:13:08;101876.97;;;19.91;54.93
5651;BME280;40241;52.684;9.758;2022-10-04T11:35:06;101868.22;;;20.82;53.60
5651;BME280;40241;52.684;9.758;2022-10-04T11:46:01;101864.88;;;21.42;52.34
5651;BME280;40241;52.684;9.758;2022-10-04T12:08:48;101841.91;;;22.58;51.13
5651;BME280;40241;52.684;9.758;2022-10-04T12:11:40;101832.34;;;22.74;49.90
5651;BME280;40241;52.684;9.758;2022-10-04T12:20:40;101813.34;;;23.16;50.03
5651;BME280;40241;52.684;9.758;2022-10-04T12:31:48;101801.22;;;23.56;50.69
5651;BME280;40241;52.684;9.758;2022-10-04T12:34:26;101802.00;;;23.64;48.59
5651;BME280;40241;52.684;9.758;2022-10-04T12:37:35;101797.34;;;23.74;48.38
5651;BME280;40241;52.684;9.758;2022-10-04T12:51:18;101779.47;;;24.23;47.83
5651;BME280;40241;52.684;9.758;2022-10-04T12:56:43;101774.78;;;24.25;47.35
5651;BME280;40241;52.684;9.758;2022-10-04T13:15:56;101756.78;;;24.58;47.05
5651;BME280;40241;52.684;9.758;2022-10-04T13:23:49;101753.78;;;24.49;47.50
5651;BME280;40241;52.684;9.758;2022-10-04T13:26:35;101753.22;;;24.43;45.96
5651;BME280;40241;52.684;9.758;2022-10-04T13:29:37;101760.16;;;24.42;46.09
5651;BME280;40241;52.684;9.758;2022-10-04T13:32:18;101753.03;;;24.41;46.45
5651;BME280;40241;52.684;9.758;2022-10-04T13:57:10;101727.09;;;23.82;45.83
5651;BME280;40241;52.684;9.758;2022-10-04T13:59:46;101714.53;;;23.75;46.24
5651;BME280;40241;52.684;9.758;2022-10-04T14:05:11;101713.19;;;23.61;47.85
5651;BME280;40241;52.684;9.758;2022-10-04T14:13:25;101697.81;;;23.55;47.77
5651;BME280;40241;52.684;9.758;2022-10-04T14:16:11;101695.75;;;23.48;47.61
5651;BME280;40241;52.684;9.758;2022-10-04T14:35:43;101685.47;;;23.07;47.26
5651;BME280;40241;52.684;9.758;2022-10-04T14:56:49;101679.53;;;22.54;47.17
5651;BME280;40241;52.684;9.758;2022-10-04T15:07:34;101679.06;;;22.35;47.96
5651;BME280;40241;52.684;9.758;2022-10-04T15:13:01;101698.25;;;22.23;48.31
5651;BME280;40241;52.684;9.758;2022-10-04T15:23:54;101681.16;;;21.93;48.66
5651;BME280;40241;52.684;9.758;2022-10-04T15:34:02;101658.56;;;21.78;48.93
5651;BME280;40241;52.684;9.758;2022-10-04T15:36:41;101649.97;;;21.76;49.38
5651;BME280;40241;52.684;9.758;2022-10-04T15:41:47;101635.47;;;21.64;49.77
5651;BME280;40241;52.684;9.758;2022-10-04T15:44:37;101639.19;;;21.59;49.53
5651;BME280;40241;52.684;9.758;2022-10-04T15:50:32;101659.16;;;21.43;50.17
5651;BME280;40241;52.684;9.758;2022-10-04T15:53:15;101662.44;;;21.34;50.49
5651;BME280;40241;52.684;9.758;2022-10-04T15:56:24;101651.81;;;21.19;50.99
5651;BME280;40241;52.684;9.758;2022-10-04T15:59:34;101664.22;;;21.11;51.06
5651;BME280;40241;52.684;9.758;2022-10-04T16:02:42;101662.59;;;21.02;51.12
5651;BME280;40241;52.684;9.758;2022-10-04T16:04:56;101668.00;;;20.87;51.60
5651;BME280;40241;52.684;9.758;2022-10-04T16:10:27;101647.03;;;20.67;52.06
5651;BME280;40241;52.684;9.758;2022-10-04T16:15:37;101647.13;;;20.49;52.29
5651;BME280;40241;52.684;9.758;2022-10-04T16:20:58;101655.63;;;20.30;52.54
5651;BME280;40241;52.684;9.758;2022-10-04T16:23:37;101640.56;;;20.20;52.63
5651;BME280;40241;52.684;9.758;2022-10-04T16:31:44;101635.00;;;19.88;53.27
5651;BME280;40241;52.684;9.758;2022-10-04T16:45:23;101647.84;;;19.47;53.56
5651;BME280;40241;52.684;9.758;2022-10-04T16:47:49;101649.00;;;19.38;53.63
5651;BME280;40241;52.684;9.758;2022-10-04T16:56:15;101645.91;;;19.04;53.83
5651;BME280;40241;52.684;9.758;2022-10-04T16:59:01;101636.38;;;18.94;53.74
5651;BME280;40241;52.684;9.758;2022-10-04T17:14:51;101638.53;;;18.40;54.81
5651;BME280;40241;52.684;9.758;2022-10-04T17:17:45;101634.31;;;18.33;55.14
5651;BME280;40241;52.684;9.758;2022-10-04T17:20:28;101632.63;;;18.25;54.87
5651;BME280;40241;52.684;9.758;2022-10-04T17:26:27;101629.25;;;18.08;55.82
5651;BME280;40241;52.684;9.758;2022-10-04T17:37:23;101625.41;;;17.86;55.60
5651;BME280;40241;52.684;9.758;2022-10-04T17:40:22;101627.00;;;17.76;55.86
5651;BME280;40241;52.684;9.758;2022-10-04T17:43:21;101627.31;;;17.67;55.92
5651;BME280;40241;52.684;9.758;2022-10-04T17:48:26;101629.44;;;17.56;56.00
5651;BME280;40241;52.684;9.758;2022-10-04T17:57:27;101628.31;;;17.29;56.09
5651;BME280;40241;52.684;9.758;2022-10-04T18:00:16;101624.06;;;17.22;56.45
5651;BME280;40241;52.684;9.758;2022-10-04T18:05:30;101623.38;;;17.11;56.13
5651;BME280;40241;52.684;9.758;2022-10-04T18:08:01;101611.00;;;17.06;56.16
5651;BME280;40241;52.684;9.758;2022-10-04T18:10:38;101617.88;;;17.00;56.36
5651;BME280;40241;52.684;9.758;2022-10-04T18:13:23;101614.88;;;16.92;56.64
5651;BME280;40241;52.684;9.758;2022-10-04T18:15:56;101613.41;;;16.86;56.62
5651;BME280;40241;52.684;9.758;2022-10-04T18:18:29;101624.03;;;16.82;56.68
5651;BME280;40241;52.684;9.758;2022-10-04T18:23:28;101623.03;;;16.74;56.99
5651;BME280;40241;52.684;9.758;2022-10-04T18:26:21;101622.84;;;16.66;57.15
5651;BME280;40241;52.684;9.758;2022-10-04T18:28:49;101621.84;;;16.64;56.73
5651;BME280;40241;52.684;9.758;2022-10-04T18:34:26;101618.56;;;16.54;57.51
5651;BME280;40241;52.684;9.758;2022-10-04T18:37:16;101617.56;;;16.52;57.43
5651;BME280;40241;52.684;9.758;2022-10-04T18:39:45;101627.16;;;16.45;57.11
5651;BME280;40241;52.684;9.758;2022-10-04T18:42:21;101627.41;;;16.41;57.21
5651;BME280;40241;52.684;9.758;2022-10-04T18:45:03;101626.69;;;16.35;57.27
5651;BME280;40241;52.684;9.758;2022-10-04T18:47:42;101628.69;;;16.29;57.04
5651;BME280;40241;52.684;9.758;2022-10-04T18:55:40;101625.97;;;16.13;57.62
5651;BME280;40241;52.684;9.758;2022-10-04T19:12:26;101621.22;;;15.86;57.82
5651;BME280;40241;52.684;9.758;2022-10-04T19:15:27;101619.44;;;15.83;58.16
5651;BME280;40241;52.684;9.758;2022-10-04T19:20:39;101636.09;;;15.71;58.10
5651;BME280;40241;52.684;9.758;2022-10-04T19:23:23;101618.44;;;15.69;58.40
5651;BME280;40241;52.684;9.758;2022-10-04T19:25:54;101620.69;;;15.65;57.94
5651;BME280;40241;52.684;9.758;2022-10-04T19:28:24;101617.41;;;15.61;58.09
5651;BME280;40241;52.684;9.758;2022-10-04T19:34:13;101631.78;;;15.54;58.58
5651;BME280;40241;52.684;9.758;2022-10-04T19:36:49;101637.59;;;15.50;58.51
5651;BME280;40241;52.684;9.758;2022-10-04T19:41:58;101656.75;;;15.48;58.29
5651;BME280;40241;52.684;9.758;2022-10-04T19:49:36;101662.25;;;15.37;58.55
5651;BME280;40241;52.684;9.758;2022-10-04T19:55:02;101645.06;;;15.28;58.64
5651;BME280;40241;52.684;9.758;2022-10-04T19:57:35;101634.72;;;15.23;58.63
5651;BME280;40241;52.684;9.758;2022-10-04T20:00:12;101617.06;;;15.20;58.72
5651;BME280;40241;52.684;9.758;2022-10-04T20:02:42;101629.19;;;15.17;58.79
5651;BME280;40241;52.684;9.758;2022-10-04T20:05:15;101626.16;;;15.15;58.94
5651;BME280;40241;52.684;9.758;2022-10-04T20:07:48;101618.06;;;15.12;59.02
5651;BME280;40241;52.684;9.758;2022-10-04T20:13:12;101632.16;;;15.02;59.19
5651;BME280;40241;52.684;9.758;2022-10-04T20:15:49;101627.63;;;14.99;59.10
5651;BME280;40241;52.684;9.758;2022-10-04T20:26:09;101623.78;;;14.86;59.18
5651;BME280;40241;52.684;9.758;2022-10-04T20:28:40;101624.03;;;14.82;59.29
5651;BME280;40241;52.684;9.758;2022-10-04T20:34:49;101618.72;;;14.79;59.91
5651;BME280;40241;52.684;9.758;2022-10-04T20:37:08;101623.25;;;14.76;59.42
5651;BME280;40241;52.684;9.758;2022-10-04T20:45:17;101622.44;;;14.70;59.70
5651;BME280;40241;52.684;9.758;2022-10-04T20:47:48;101624.72;;;14.66;59.37
5651;BME280;40241;52.684;9.758;2022-10-04T20:52:45;101648.13;;;14.65;59.53
5651;BME280;40241;52.684;9.758;2022-10-04T20:55:20;101646.84;;;14.61;59.55
5651;BME280;40241;52.684;9.758;2022-10-04T20:57:46;101649.84;;;14.57;59.53
5651;BME280;40241;52.684;9.758;2022-10-04T21:00:23;101651.09;;;14.56;59.70
5651;BME280;40241;52.684;9.758;2022-10-04T21:03:05;101642.75;;;14.51;59.76
5651;BME280;40241;52.684;9.758;2022-10-04T21:05:30;101641.72;;;14.48;59.50
5651;BME280;40241;52.684;9.758;2022-10-04T21:08:21;101634.94;;;14.44;60.13
5651;BME280;40241;52.684;9.758;2022-10-04T21:13:56;101621.53;;;14.37;60.22
5651;BME280;40241;52.684;9.758;2022-10-04T21:16:43;101614.72;;;14.32;60.20
5651;BME280;40241;52.684;9.758;2022-10-04T21:27:37;101589.97;;;14.23;60.50
5651;BME280;40241;52.684;9.758;2022-10-04T21:30:12;101575.09;;;14.20;60.11
5651;BME280;40241;52.684;9.758;2022-10-04T21:32:38;101586.19;;;14.20;60.02
5651;BME280;40241;52.684;9.758;2022-10-04T21:35:04;101590.94;;;14.20;59.99
5651;BME280;40241;52.684;9.758;2022-10-04T21:37:32;101593.25;;;14.21;60.07
5651;BME280;40241;52.684;9.758;2022-10-04T21:39:57;101588.44;;;14.22;60.01
5651;BME280;40241;52.684;9.758;2022-10-04T21:42:23;101599.50;;;14.22;59.97
5651;BME280;40241;52.684;9.758;2022-10-04T21:44:49;101588.94;;;14.20;60.02
5651;BME280;40241;52.684;9.758;2022-10-04T21:47:14;101591.97;;;14.17;60.13
5651;BME280;40241;52.684;9.758;2022-10-04T21:49:40;101595.50;;;14.17;60.17
5651;BME280;40241;52.684;9.758;2022-10-04T21:52:05;101593.19;;;14.16;60.10
5651;BME280;40241;52.684;9.758;2022-10-04T21:54:31;101597.22;;;14.15;60.08
5651;BME280;40241;52.684;9.758;2022-10-04T21:56:57;101591.69;;;14.15;60.22
5651;BME280;40241;52.684;9.758;2022-10-04T21:59:22;101590.94;;;14.14;60.33
5651;BME280;40241;52.684;9.758;2022-10-04T22:01:48;101590.41;;;14.10;60.41
5651;BME280;40241;52.684;9.758;2022-10-04T22:04:13;101603.97;;;14.08;60.23
5651;BME280;40241;52.684;9.758;2022-10-04T22:06:38;101616.28;;;14.07;60.33
5651;BME280;40241;52.684;9.758;2022-10-04T22:09:04;101636.94;;;14.06;60.18
5651;BME280;40241;52.684;9.758;2022-10-04T22:11:30;101617.06;;;14.08;60.42
5651;BME280;40241;52.684;9.758;2022-10-04T22:13:55;101609.25;;;14.06;60.38
5651;BME280;40241;52.684;9.758;2022-10-04T22:16:20;101614.50;;;14.04;60.39
5651;BME280;40241;52.684;9.758;2022-10-04T22:18:46;101619.03;;;14.02;60.50
5651;BME280;40241;52.684;9.758;2022-10-04T22:21:11;101613.50;;;14.02;60.54
5651;BME280;40241;52.684;9.758;2022-10-04T22:23:41;101614.22;;;14.02;60.59
5651;BME280;40241;52.684;9.758;2022-10-04T22:26:20;101616.00;;;14.00;60.93
5651;BME280;40241;52.684;9.758;2022-10-04T22:28:51;101616.97;;;13.97;60.81
5651;BME280;40241;52.684;9.758;2022-10-04T22:31:20;101611.94;;;13.95;60.59
5651;BME280;40241;52.684;9.758;2022-10-04T22:33:47;101611.69;;;13.93;60.81
5651;BME280;40241;52.684;9.758;2022-10-04T22:38:55;101618.94;;;13.91;60.65
5651;BME280;40241;52.684;9.758;2022-10-04T22:41:21;101624.47;;;13.91;60.86
5651;BME280;40241;52.684;9.758;2022-10-04T22:43:48;101610.38;;;13.89;60.76
5651;BME280;40241;52.684;9.758;2022-10-04T22:46:18;101622.69;;;13.88;60.86
5651;BME280;40241;52.684;9.758;2022-10-04T22:48:45;101616.88;;;13.86;60.75
5651;BME280;40241;52.684;9.758;2022-10-04T22:51:11;101624.91;;;13.84;60.77
5651;BME280;40241;52.684;9.758;2022-10-04T22:53:44;101618.88;;;13.85;61.05
5651;BME280;40241;52.684;9.758;2022-10-04T22:56:13;101617.38;;;13.84;60.98
5651;BME280;40241;52.684;9.758;2022-10-04T22:58:40;101622.16;;;13.84;60.88
5651;BME280;40241;52.684;9.758;2022-10-04T23:01:15;101612.31;;;13.83;61.15
5651;BME280;40241;52.684;9.758;2022-10-04T23:03:44;101610.06;;;13.81;61.04
5651;BME280;40241;52.684;9.758;2022-10-04T23:06:10;101602.03;;;13.83;61.03
5651;BME280;40241;52.684;9.758;2022-10-04T23:08:39;101599.75;;;13.82;61.07
5651;BME280;40241;52.684;9.758;2022-10-04T23:11:06;101596.50;;;13.83;61.11
5651;BME280;40241;52.684;9.758;2022-10-04T23:13:31;101585.44;;;13.83;61.12
5651;BME280;40241;52.684;9.758;2022-10-04T23:15:59;101585.44;;;13.83;61.08
5651;BME280;40241;52.684;9.758;2022-10-04T23:18:27;101584.66;;;13.83;60.93
5651;BME280;40241;52.684;9.758;2022-10-04T23:20:56;101578.88;;;13.81;61.16
5651;BME280;40241;52.684;9.758;2022-10-04T23:23:25;101576.09;;;13.81;61.08
5651;BME280;40241;52.684;9.758;2022-10-04T23:25:52;101574.34;;;13.78;61.07
5651;BME280;40241;52.684;9.758;2022-10-04T23:28:18;101580.34;;;13.76;60.96
5651;BME280;40241;52.684;9.758;2022-10-04T23:31:14;101573.53;;;13.72;61.57
5651;BME280;40241;52.684;9.758;2022-10-04T23:33:42;101575.75;;;13.68;61.07
5651;BME280;40241;52.684;9.758;2022-10-04T23:36:10;101574.72;;;13.65;61.15
5651;BME280;40241;52.684;9.758;2022-10-04T23:38:37;101578.50;;;13.62;61.15